createdAt,value
2022-09-29T00:00:29.246Z,21.10
2022-09-29T00:03:02.809Z,19.90
2022-09-29T00:05:36.797Z,18.13
2022-09-29T00:08:10.225Z,20.67
2022-09-29T00:10:45.221Z,14.73
2022-09-29T00:13:19.659Z,16.10
2022-09-29T00:15:58.013Z,20.27
2022-09-29T00:18:32.767Z,16.23
2022-09-29T00:21:09.390Z,16.15
2022-09-29T00:23:43.279Z,18.60
2022-09-29T00:26:21.005Z,17.27
2022-09-29T00:28:56.987Z,16.60
2022-09-29T00:31:32.552Z,15.48
2022-09-29T00:34:06.229Z,16.77
2022-09-29T00:36:39.673Z,14.13
2022-09-29T00:39:13.418Z,14.23
2022-09-29T00:47:16.677Z,15.18
2022-09-29T00:49:54.829Z,14.00
2022-09-29T00:52:33.910Z,14.70
2022-09-29T00:55:12.561Z,12.93
2022-09-29T00:57:51.327Z,13.05
2022-09-29T01:00:25.262Z,13.00
2022-09-29T01:05:45.696Z,11.43
2022-09-29T01:08:26.110Z,13.43
2022-09-29T01:11:02.117Z,12.32
2022-09-29T01:13:37.270Z,11.90
2022-09-29T01:16:10.921Z,12.65
2022-09-29T01:18:45.845Z,11.65
2022-09-29T01:21:29.201Z,10.48
2022-09-29T01:24:34.535Z,14.82
2022-09-29T01:27:23.947Z,12.60
2022-09-29T01:30:22.560Z,14.75
2022-09-29T01:33:13.559Z,14.15
2022-09-29T01:35:56.946Z,11.25
2022-09-29T01:38:57.587Z,11.57
2022-09-29T01:41:38.513Z,11.82
2022-09-29T01:44:20.196Z,9.50
2022-09-29T01:46:57.899Z,14.77
2022-09-29T01:49:41.971Z,11.40
2022-09-29T01:54:55.725Z,12.05
2022-09-29T01:57:34.079Z,11.88
2022-09-29T02:00:11.738Z,12.20
2022-09-29T02:02:52.138Z,10.38
2022-09-29T02:05:33.134Z,11.55
2022-09-29T02:08:13.803Z,10.93
2022-09-29T02:10:53.375Z,11.60
2022-09-29T02:13:28.293Z,11.05
2022-09-29T02:16:04.369Z,12.00
2022-09-29T02:18:44.041Z,12.63
2022-09-29T02:21:19.121Z,12.98
2022-09-29T02:23:53.806Z,12.32
2022-09-29T02:26:32.015Z,12.20
2022-09-29T02:29:07.750Z,12.27
2022-09-29T02:31:42.134Z,14.90
2022-09-29T02:34:18.888Z,12.77
2022-09-29T02:37:04.051Z,14.15
2022-09-29T02:39:47.322Z,10.48
2022-09-29T02:42:30.167Z,12.05
2022-09-29T02:45:22.653Z,12.20
2022-09-29T02:48:14.359Z,9.90
2022-09-29T02:51:03.323Z,11.15
2022-09-29T02:53:53.968Z,11.60
2022-09-29T02:56:35.986Z,10.77
2022-09-29T02:59:13.524Z,10.65
2022-09-29T03:01:51.814Z,10.18
2022-09-29T03:04:27.272Z,12.90
2022-09-29T03:07:00.814Z,12.00
2022-09-29T03:09:35.653Z,10.05
2022-09-29T03:12:09.190Z,13.30
2022-09-29T03:14:42.641Z,11.57
2022-09-29T03:17:16.143Z,12.93
2022-09-29T03:19:49.677Z,11.90
2022-09-29T03:22:23.166Z,10.43
2022-09-29T03:24:58.092Z,11.85
2022-09-29T03:27:34.520Z,14.23
2022-09-29T03:30:13.821Z,14.90
2022-09-29T03:32:47.412Z,14.23
2022-09-29T03:35:20.983Z,13.07
2022-09-29T03:37:58.987Z,13.60
2022-09-29T03:40:33.958Z,12.85
2022-09-29T03:43:07.432Z,14.25
2022-09-29T03:45:50.039Z,11.95
2022-09-29T03:48:24.976Z,12.82
2022-09-29T03:50:59.095Z,14.98
2022-09-29T03:53:32.558Z,12.52
2022-09-29T03:56:07.957Z,15.25
2022-09-29T03:58:41.545Z,15.73
2022-09-29T04:01:15.068Z,12.27
2022-09-29T04:03:48.669Z,13.07
2022-09-29T04:06:22.158Z,15.35
2022-09-29T04:08:55.642Z,13.60
2022-09-29T04:11:30.576Z,14.90
2022-09-29T04:14:04.191Z,13.63
2022-09-29T04:16:37.731Z,18.50
2022-09-29T04:19:11.204Z,15.65
2022-09-29T04:21:44.789Z,16.75
2022-09-29T04:24:18.272Z,14.52
2022-09-29T04:26:53.233Z,13.43
2022-09-29T04:29:26.765Z,13.93
2022-09-29T04:32:00.411Z,14.82
2022-09-29T04:34:34.075Z,16.02
2022-09-29T04:37:11.566Z,16.30
2022-09-29T04:39:45.088Z,15.18
2022-09-29T04:42:20.342Z,16.40
2022-09-29T04:44:53.903Z,13.25
2022-09-29T04:47:27.478Z,16.67
2022-09-29T04:50:01.017Z,15.05
2022-09-29T04:52:34.745Z,19.02
2022-09-29T04:55:11.397Z,19.27
2022-09-29T04:57:46.620Z,26.30
2022-09-29T05:00:20.787Z,20.25
2022-09-29T05:02:54.250Z,20.80
2022-09-29T05:05:27.892Z,21.13
2022-09-29T05:08:04.432Z,20.67
2022-09-29T05:10:38.176Z,24.90
2022-09-29T05:13:13.068Z,25.17
2022-09-29T05:15:46.498Z,22.02
2022-09-29T05:18:19.975Z,24.27
2022-09-29T05:21:10.644Z,25.08
2022-09-29T05:23:47.313Z,22.00
2022-09-29T05:26:20.883Z,25.65
2022-09-29T05:28:55.815Z,20.63
2022-09-29T05:31:29.309Z,23.45
2022-09-29T05:34:02.844Z,26.80
2022-09-29T05:36:36.408Z,20.52
2022-09-29T05:39:10.157Z,24.98
2022-09-29T05:41:43.632Z,28.80
2022-09-29T05:44:18.597Z,22.83
2022-09-29T05:46:52.423Z,23.17
2022-09-29T05:51:59.280Z,23.10
2022-09-29T05:54:32.866Z,21.50
2022-09-29T05:57:06.383Z,21.70
2022-09-29T05:59:42.085Z,19.63
2022-09-29T06:02:17.362Z,23.90
2022-09-29T06:04:53.569Z,22.05
2022-09-29T06:07:28.449Z,22.25
2022-09-29T06:10:02.025Z,21.55
2022-09-29T06:12:39.430Z,21.13
2022-09-29T06:15:14.556Z,24.30
2022-09-29T06:17:50.407Z,19.90
2022-09-29T06:20:24.078Z,24.88
2022-09-29T06:25:31.305Z,22.50
2022-09-29T06:28:06.663Z,21.30
2022-09-29T06:30:41.580Z,21.67
2022-09-29T06:33:15.192Z,24.77
2022-09-29T06:36:06.505Z,23.83
2022-09-29T06:38:40.174Z,24.48
2022-09-29T06:41:13.817Z,21.90
2022-09-29T06:43:47.374Z,27.35
2022-09-29T06:46:22.700Z,26.95
2022-09-29T06:48:56.638Z,25.30
2022-09-29T06:54:20.534Z,28.30
2022-09-29T06:56:55.570Z,32.05
2022-09-29T06:59:29.188Z,31.30
2022-09-29T07:02:04.258Z,35.72
2022-09-29T07:04:37.809Z,36.47
2022-09-29T07:07:14.148Z,31.27
2022-09-29T07:09:47.819Z,24.15
2022-09-29T07:12:21.853Z,26.25
2022-09-29T07:14:55.364Z,26.88
2022-09-29T07:17:30.384Z,27.30
2022-09-29T07:20:06.234Z,28.48
2022-09-29T07:22:39.781Z,29.20
2022-09-29T07:25:23.049Z,28.27
2022-09-29T07:28:06.988Z,30.53
2022-09-29T07:30:41.053Z,26.55
2022-09-29T07:33:17.704Z,25.95
2022-09-29T07:35:53.951Z,26.73
2022-09-29T07:38:27.606Z,30.20
2022-09-29T07:41:05.813Z,28.67
2022-09-29T07:43:40.272Z,27.23
2022-09-29T07:46:13.976Z,29.73
2022-09-29T07:53:55.491Z,24.42
2022-09-29T07:56:29.042Z,29.27
2022-09-29T07:59:03.628Z,22.63
2022-09-29T08:01:37.221Z,20.77
2022-09-29T08:04:14.848Z,24.75
2022-09-29T08:06:48.652Z,23.50
2022-09-29T08:09:30.306Z,26.70
2022-09-29T08:12:10.048Z,27.65
2022-09-29T08:14:44.375Z,19.25
2022-09-29T08:17:18.230Z,17.30
2022-09-29T08:22:26.255Z,14.30
2022-09-29T08:24:59.967Z,16.90
2022-09-29T08:30:10.432Z,22.48
2022-09-29T08:32:45.077Z,20.27
2022-09-29T08:35:20.101Z,20.95
2022-09-29T08:37:55.460Z,18.42
2022-09-29T08:40:31.099Z,22.50
2022-09-29T08:43:22.992Z,18.50
2022-09-29T08:46:07.219Z,16.45
2022-09-29T08:48:58.121Z,22.23
2022-09-29T08:51:42.404Z,22.70
2022-09-29T08:54:37.824Z,18.02
2022-09-29T08:57:18.730Z,15.93
2022-09-29T08:59:56.265Z,18.13
2022-09-29T09:02:51.912Z,16.85
2022-09-29T09:05:49.846Z,14.93
2022-09-29T09:08:43.058Z,16.90
2022-09-29T09:11:38.731Z,14.55
2022-09-29T09:14:23.343Z,13.02
2022-09-29T09:17:07.368Z,16.55
2022-09-29T09:20:03.172Z,14.25
2022-09-29T09:22:47.851Z,18.30
2022-09-29T09:25:30.949Z,15.13
2022-09-29T09:28:07.865Z,9.05
2022-09-29T09:30:46.536Z,9.52
2022-09-29T09:33:31.665Z,10.85
2022-09-29T09:36:11.440Z,11.10
2022-09-29T09:38:55.261Z,13.60
2022-09-29T09:44:17.478Z,9.05
2022-09-29T09:46:54.284Z,10.65
2022-09-29T09:49:32.646Z,10.57
2022-09-29T09:52:14.237Z,8.40
2022-09-29T09:54:51.531Z,9.07
2022-09-29T09:57:51.497Z,11.18
2022-09-29T10:00:30.259Z,10.30
2022-09-29T10:03:06.400Z,9.32
2022-09-29T10:05:42.784Z,9.85
2022-09-29T10:08:23.457Z,7.35
2022-09-29T10:10:59.514Z,8.75
2022-09-29T10:13:34.823Z,7.25
2022-09-29T10:16:14.763Z,16.92
2022-09-29T10:18:52.856Z,9.57
2022-09-29T10:21:38.343Z,8.25
2022-09-29T10:24:28.412Z,8.35
2022-09-29T10:27:04.046Z,7.85
2022-09-29T10:29:42.245Z,6.95
2022-09-29T10:32:18.093Z,6.90
2022-09-29T10:34:56.280Z,6.05
2022-09-29T10:37:36.637Z,5.57
2022-09-29T10:40:21.139Z,7.28
2022-09-29T10:42:54.969Z,6.90
2022-09-29T10:45:31.078Z,4.65
2022-09-29T10:48:15.230Z,4.40
2022-09-29T10:50:54.393Z,5.03
2022-09-29T10:53:35.636Z,5.82
2022-09-29T10:56:17.649Z,5.03
2022-09-29T10:59:01.820Z,7.47
2022-09-29T11:01:47.887Z,6.35
2022-09-29T11:06:58.538Z,7.20
2022-09-29T11:09:37.804Z,7.00
2022-09-29T11:12:29.362Z,9.65
2022-09-29T11:15:03.622Z,7.70
2022-09-29T11:17:40.681Z,7.57
2022-09-29T11:20:18.197Z,6.78
2022-09-29T11:23:11.089Z,6.28
2022-09-29T11:26:18.448Z,6.55
2022-09-29T11:29:16.670Z,6.07
2022-09-29T11:32:05.830Z,6.85
2022-09-29T11:35:07.046Z,5.90
2022-09-29T11:38:10.318Z,5.80
2022-09-29T11:40:56.325Z,4.30
2022-09-29T11:43:47.737Z,6.78
2022-09-29T11:46:51.071Z,4.95
2022-09-29T11:49:57.251Z,5.93
2022-09-29T11:52:48.034Z,4.78
2022-09-29T11:55:34.976Z,5.68
2022-09-29T11:58:26.938Z,7.95
2022-09-29T12:01:18.381Z,11.82
2022-09-29T12:04:07.815Z,8.45
2022-09-29T12:06:57.846Z,9.60
2022-09-29T12:09:50.751Z,5.85
2022-09-29T12:12:36.474Z,5.30
2022-09-29T12:15:27.991Z,5.53
2022-09-29T12:18:08.244Z,6.70
2022-09-29T12:20:49.458Z,5.63
2022-09-29T12:23:27.909Z,5.35
2022-09-29T12:26:07.333Z,5.43
2022-09-29T12:28:46.858Z,6.22
2022-09-29T12:31:26.290Z,5.95
2022-09-29T12:34:04.502Z,10.63
2022-09-29T12:36:45.985Z,5.60
2022-09-29T12:39:33.367Z,5.40
2022-09-29T12:42:30.123Z,5.13
2022-09-29T12:45:25.286Z,6.05
2022-09-29T12:48:08.714Z,5.68
2022-09-29T12:53:28.176Z,6.07
2022-09-29T12:56:05.706Z,5.78
2022-09-29T12:58:44.601Z,5.63
2022-09-29T13:01:25.057Z,5.85
2022-09-29T13:04:31.095Z,5.13
2022-09-29T13:07:39.842Z,5.35
2022-09-29T13:10:52.843Z,9.13
2022-09-29T13:14:04.655Z,5.07
2022-09-29T13:17:02.980Z,8.00
2022-09-29T13:20:26.942Z,8.25
2022-09-29T13:23:39.259Z,5.82
2022-09-29T13:26:35.327Z,6.15
2022-09-29T13:29:17.440Z,6.10
2022-09-29T13:31:52.797Z,5.93
2022-09-29T13:34:33.007Z,6.88
2022-09-29T13:37:09.735Z,8.40
2022-09-29T13:39:45.263Z,6.70
2022-09-29T13:42:45.501Z,6.45
2022-09-29T13:45:48.161Z,8.18
2022-09-29T13:48:51.354Z,8.90
2022-09-29T13:51:45.573Z,6.20
2022-09-29T13:54:36.785Z,7.13
2022-09-29T13:57:28.706Z,7.03
2022-09-29T14:00:27.375Z,6.13
2022-09-29T14:03:25.650Z,9.65
2022-09-29T14:06:40.123Z,6.40
2022-09-29T14:09:20.494Z,9.77
2022-09-29T14:11:56.304Z,7.40
2022-09-29T14:14:37.982Z,7.95
2022-09-29T14:17:16.649Z,6.97
2022-09-29T14:20:03.749Z,8.93
2022-09-29T14:23:04.962Z,8.27
2022-09-29T14:25:56.676Z,8.40
2022-09-29T14:28:46.836Z,10.45
2022-09-29T14:31:28.469Z,12.02
2022-09-29T14:34:07.365Z,10.73
2022-09-29T14:36:47.441Z,8.50
2022-09-29T14:39:26.554Z,8.15
2022-09-29T14:42:01.626Z,10.68
2022-09-29T14:44:51.817Z,11.80
2022-09-29T14:47:55.928Z,10.25
2022-09-29T14:51:03.739Z,11.95
2022-09-29T14:53:56.800Z,13.35
2022-09-29T14:56:44.392Z,12.25
2022-09-29T14:59:30.009Z,10.00
2022-09-29T15:02:19.455Z,10.35
2022-09-29T15:04:53.134Z,10.52
2022-09-29T15:14:25.427Z,10.23
2022-09-29T15:17:13.669Z,11.35
2022-09-29T15:19:58.073Z,11.57
2022-09-29T15:23:02.395Z,10.43
2022-09-29T15:25:37.651Z,11.32
2022-09-29T15:28:17.166Z,13.80
2022-09-29T15:30:55.025Z,10.85
2022-09-29T15:33:31.219Z,11.73
2022-09-29T15:36:08.025Z,10.98
2022-09-29T15:38:42.168Z,12.95
2022-09-29T15:41:18.262Z,14.93
2022-09-29T15:43:58.520Z,10.43
2022-09-29T15:46:41.812Z,14.45
2022-09-29T15:49:18.832Z,12.52
2022-09-29T15:52:03.398Z,15.55
2022-09-29T15:54:40.800Z,12.32
2022-09-29T15:57:52.637Z,12.80
2022-09-29T16:00:54.508Z,13.70
2022-09-29T16:03:37.367Z,16.70
2022-09-29T16:06:22.831Z,19.38
2022-09-29T16:08:59.756Z,22.63
2022-09-29T16:11:36.204Z,21.42
2022-09-29T16:14:12.298Z,24.58
2022-09-29T16:16:59.704Z,16.73
2022-09-29T16:19:38.120Z,20.77
2022-09-29T16:22:23.551Z,20.15
2022-09-29T16:25:12.425Z,20.83
2022-09-29T16:27:56.192Z,17.05
2022-09-29T16:30:33.156Z,17.35
2022-09-29T16:33:15.951Z,21.17
2022-09-29T16:36:03.197Z,22.02
2022-09-29T16:38:39.810Z,20.67
2022-09-29T16:41:22.963Z,23.38
2022-09-29T16:44:07.107Z,23.30
2022-09-29T16:46:50.185Z,31.27
2022-09-29T16:49:27.323Z,25.33
2022-09-29T16:52:13.626Z,27.58
2022-09-29T16:54:52.442Z,27.88
2022-09-29T16:57:29.177Z,30.10
2022-09-29T17:00:10.913Z,32.40
2022-09-29T17:02:44.417Z,24.63
2022-09-29T17:05:17.920Z,23.13
2022-09-29T17:08:01.353Z,25.13
2022-09-29T17:10:34.949Z,21.60
2022-09-29T17:13:13.653Z,21.45
2022-09-29T17:15:50.033Z,18.92
2022-09-29T17:18:26.622Z,23.48
2022-09-29T17:21:00.290Z,29.38
2022-09-29T17:23:36.517Z,23.20
2022-09-29T17:26:42.089Z,24.85
2022-09-29T17:29:15.667Z,27.90
2022-09-29T17:31:49.367Z,27.77
2022-09-29T17:37:03.295Z,36.17
2022-09-29T17:39:38.198Z,43.88
2022-09-29T17:42:12.209Z,38.03
2022-09-29T17:44:46.430Z,33.42
2022-09-29T17:47:28.253Z,30.60
2022-09-29T17:50:19.145Z,29.73
2022-09-29T17:52:59.104Z,32.35
2022-09-29T17:55:37.389Z,30.10
2022-09-29T17:58:16.165Z,32.90
2022-09-29T18:00:51.617Z,38.13
2022-09-29T18:03:25.722Z,36.42
2022-09-29T18:06:00.258Z,37.13
2022-09-29T18:08:33.977Z,46.10
2022-09-29T18:13:47.128Z,44.35
2022-09-29T18:16:22.899Z,50.28
2022-09-29T18:18:59.186Z,44.80
2022-09-29T18:21:34.422Z,48.45
2022-09-29T18:24:10.343Z,38.22
2022-09-29T18:26:47.253Z,33.17
2022-09-29T18:29:20.931Z,33.72
2022-09-29T18:34:31.156Z,32.67
2022-09-29T18:37:10.657Z,30.80
2022-09-29T18:39:44.256Z,31.30
2022-09-29T18:42:19.482Z,30.45
2022-09-29T18:44:53.315Z,35.83
2022-09-29T18:47:27.057Z,29.35
2022-09-29T18:52:42.604Z,32.53
2022-09-29T18:55:18.029Z,29.23
2022-09-29T18:57:56.437Z,29.77
2022-09-29T19:00:32.860Z,32.95
2022-09-29T19:03:06.988Z,36.65
2022-09-29T19:05:47.503Z,41.10
2022-09-29T19:08:27.499Z,41.33
2022-09-29T19:11:04.952Z,41.70
2022-09-29T19:13:42.002Z,38.30
2022-09-29T19:16:22.658Z,36.22
2022-09-29T19:18:56.691Z,43.92
2022-09-29T19:21:33.534Z,36.25
2022-09-29T19:24:13.796Z,41.67
2022-09-29T19:26:47.499Z,46.42
2022-09-29T19:31:56.938Z,41.88
2022-09-29T19:34:35.936Z,41.25
2022-09-29T19:37:09.921Z,38.92
2022-09-29T19:39:46.892Z,36.60
2022-09-29T19:42:20.608Z,38.25
2022-09-29T19:44:56.202Z,37.95
2022-09-29T19:47:29.846Z,41.20
2022-09-29T19:50:17.392Z,36.28
2022-09-29T19:52:51.010Z,36.47
2022-09-29T19:55:25.022Z,37.85
2022-09-29T19:57:59.515Z,40.17
2022-09-29T20:00:35.050Z,35.50
2022-09-29T20:03:09.027Z,36.38
2022-09-29T20:05:42.769Z,36.90
2022-09-29T20:08:16.447Z,36.72
2022-09-29T20:13:23.705Z,38.55
2022-09-29T20:18:31.932Z,50.35
2022-09-29T20:21:07.852Z,49.17
2022-09-29T20:23:41.593Z,48.65
2022-09-29T20:26:15.729Z,51.80
2022-09-29T20:28:50.992Z,49.22
2022-09-29T20:31:26.107Z,50.20
2022-09-29T20:33:59.802Z,45.00
2022-09-29T20:36:33.593Z,51.70
2022-09-29T20:41:43.871Z,49.97
2022-09-29T20:44:20.177Z,53.40
2022-09-29T20:46:55.597Z,54.67
2022-09-29T20:49:29.322Z,52.85
2022-09-29T20:52:03.270Z,55.95
2022-09-29T20:57:12.948Z,53.33
2022-09-29T20:59:46.717Z,51.70
2022-09-29T21:02:21.768Z,53.78
2022-09-29T21:04:55.386Z,51.20
2022-09-29T21:07:38.498Z,51.05
2022-09-29T21:10:12.888Z,72.20
2022-09-29T21:12:47.236Z,78.97
2022-09-29T21:15:27.401Z,66.47
2022-09-29T21:18:04.414Z,81.93
2022-09-29T21:20:43.312Z,77.25
2022-09-29T21:23:17.584Z,68.60
2022-09-29T21:25:59.063Z,73.93
2022-09-29T21:28:33.665Z,66.97
2022-09-29T21:31:09.177Z,70.88
2022-09-29T21:33:45.005Z,70.97
2022-09-29T21:36:20.730Z,64.38
2022-09-29T21:38:54.850Z,61.75
2022-09-29T21:41:29.888Z,60.45
2022-09-29T21:44:06.445Z,56.20
2022-09-29T21:46:40.781Z,62.90
2022-09-29T21:49:18.215Z,59.35
2022-09-29T21:51:52.248Z,57.90
2022-09-29T21:54:26.393Z,63.53
2022-09-29T21:57:00.036Z,66.25
2022-09-29T21:59:33.592Z,67.07
2022-09-29T22:02:07.671Z,65.30
2022-09-29T22:04:42.613Z,68.00
2022-09-29T22:07:16.179Z,64.97
2022-09-29T22:09:50.818Z,72.00
2022-09-29T22:12:26.240Z,66.65
2022-09-29T22:14:59.845Z,64.57
2022-09-29T22:17:34.177Z,65.20
2022-09-29T22:20:09.895Z,66.72
2022-09-29T22:22:43.479Z,69.22
2022-09-29T22:25:17.131Z,67.00
2022-09-29T22:27:50.609Z,62.50
2022-09-29T22:30:24.400Z,59.05
2022-09-29T22:32:57.885Z,66.93
2022-09-29T22:35:35.891Z,64.15
2022-09-29T22:38:11.269Z,61.22
2022-09-29T22:40:44.850Z,72.95
2022-09-29T22:43:19.122Z,59.03
2022-09-29T22:45:53.555Z,70.20
2022-09-29T22:48:27.281Z,67.97
2022-09-29T22:53:35.815Z,60.33
2022-09-29T22:56:12.423Z,63.55
2022-09-29T22:58:46.531Z,64.60
2022-09-29T23:01:21.460Z,57.97
2022-09-29T23:03:55.058Z,64.00
2022-09-29T23:06:30.068Z,58.05
2022-09-29T23:09:03.620Z,58.38
2022-09-29T23:11:37.395Z,56.38
2022-09-29T23:14:11.695Z,57.95
2022-09-29T23:16:46.700Z,54.15
2022-09-29T23:19:20.470Z,57.38
2022-09-29T23:21:55.477Z,49.75
2022-09-29T23:24:29.073Z,45.88
2022-09-29T23:27:02.596Z,46.75
2022-09-29T23:29:36.110Z,48.35
2022-09-29T23:32:09.651Z,37.45
2022-09-29T23:34:43.410Z,43.10
2022-09-29T23:37:18.381Z,42.90
2022-09-29T23:39:51.096Z,40.70
2022-09-29T23:42:25.442Z,39.35
2022-09-29T23:44:59.015Z,39.33
2022-09-29T23:47:34.485Z,46.85
2022-09-29T23:50:08.611Z,38.97
2022-09-29T23:52:44.263Z,38.33
2022-09-29T23:55:18.040Z,36.78
